< Typhoon 197907 1979 Season Typhoon 197909 >
Typhoon 197908 (GORDON)
General InformationTrack Information on Google MapsDetailed Wind InformationList of All Images || Disaster Info.ResourceGoogle EarthGE AnimationAtom FeedGeoJSON
Detalied Best Track (Time Zone = UTC)
Year Month Day Hour Lat. Long. Pressure (hPa) Wind (kt) Class Image Chart
1979 7 25 12 17.7 131.3 1002 0 2 Image Chart
1979 7 25 18 18.2 131.2 1002 0 2 Image Chart
1979 7 26 00 18.7 131.0 1002 0 2 Image Chart
1979 7 26 06 18.7 131.0 1002 0 2 Image Chart
1979 7 26 12 20.0 129.2 1000 0 2 Image Chart
1979 7 26 18 20.3 127.9 998 0 2 Image Chart
1979 7 27 00 20.6 126.3 994 35 3 Image Chart
1979 7 27 06 20.7 125.2 992 35 3 Image Chart
1979 7 27 12 20.9 124.1 990 40 3 Image Chart
1979 7 27 18 21.0 123.0 985 45 3 Image Chart
1979 7 28 00 21.1 121.8 980 50 4 Image Chart
1979 7 28 06 21.4 121.0 980 50 4 Image Chart
1979 7 28 12 22.0 120.1 975 55 4 Image Chart
1979 7 28 18 22.5 118.9 975 55 4 Image Chart
1979 7 29 00 22.7 117.4 980 55 4 Image Chart
1979 7 29 06 23.0 116.3 985 45 3 Image Chart
1979 7 29 12 23.0 115.0 992 0 2 Image Chart
1979 7 29 18 23.0 114.0 994 0 2 Image Chart
1979 7 30 00 23.1 113.5 998 0 2 Image Chart
1979 7 30 06 23.0 112.0 998 0 2 Image Chart
1979 7 30 12 23.0 109.9 998 0 2 Image Chart
1979 7 30 18 24.0 108.8 998 0 2 Image Chart
1979 7 31 00 25.0 108.7 1000 0 2 Image Chart
1979 7 31 06 25.3 107.2 1000 0 2 Image Chart
Japan Meteorological Agency Best Track Data | Correction Date : 1992-10-21
< Typhoon 197907 1979 Season Typhoon 197909 >

Help